createdAt,value
2018-11-07T00:01:01.430Z,0
2018-11-07T00:02:03.465Z,0
2018-11-07T00:03:05.479Z,0
2018-11-07T00:04:07.496Z,0
2018-11-07T00:05:09.817Z,0
2018-11-07T00:06:12.127Z,0
2018-11-07T00:07:14.142Z,0
2018-11-07T00:08:16.326Z,0
2018-11-07T00:09:18.692Z,0
2018-11-07T00:10:20.728Z,0
2018-11-07T00:11:22.736Z,0
2018-11-07T00:12:24.763Z,0
2018-11-07T00:13:27.062Z,0
2018-11-07T00:14:29.488Z,0
2018-11-07T00:15:31.508Z,0
2018-11-07T00:16:33.531Z,0
2018-11-07T00:17:35.842Z,0
2018-11-07T00:18:38.130Z,0
2018-11-07T00:19:40.164Z,0
2018-11-07T00:20:42.468Z,0
2018-11-07T00:21:44.879Z,0
2018-11-07T00:22:46.894Z,0
2018-11-07T00:23:48.935Z,0
2018-11-07T00:24:50.959Z,0
2018-11-07T00:25:52.987Z,0
2018-11-07T00:26:55.014Z,0
2018-11-07T00:27:57.027Z,0
2018-11-07T00:28:59.335Z,0
2018-11-07T00:30:01.455Z,0
2018-11-07T00:31:03.762Z,0
2018-11-07T00:32:06.097Z,0
2018-11-07T00:33:08.119Z,0
2018-11-07T00:34:10.134Z,0
2018-11-07T00:35:12.318Z,0
2018-11-07T00:36:14.659Z,0
2018-11-07T00:37:17.061Z,0
2018-11-07T00:38:19.468Z,0
2018-11-07T00:39:21.499Z,0
2018-11-07T00:40:23.519Z,0
2018-11-07T00:41:25.550Z,0
2018-11-07T00:42:28.056Z,0
2018-11-07T00:43:30.024Z,0
2018-11-07T00:44:32.011Z,0
2018-11-07T00:45:34.312Z,0
2018-11-07T00:46:36.341Z,0
2018-11-07T00:47:38.351Z,0
2018-11-07T00:48:40.679Z,0
2018-11-07T00:49:42.699Z,0
2018-11-07T00:50:44.716Z,0
2018-11-07T00:51:47.058Z,0
2018-11-07T00:52:49.352Z,0
2018-11-07T00:53:51.379Z,0
2018-11-07T00:54:53.404Z,0
2018-11-07T00:55:55.816Z,0
2018-11-07T00:56:57.836Z,0
2018-11-07T00:57:59.911Z,0
2018-11-07T00:59:01.877Z,0
2018-11-07T01:00:03.896Z,0
2018-11-07T01:01:05.926Z,0
2018-11-07T01:02:07.942Z,0
2018-11-07T01:03:09.960Z,0
2018-11-07T01:04:12.277Z,0
2018-11-07T01:05:14.292Z,0
2018-11-07T01:06:16.634Z,0
2018-11-07T01:07:18.664Z,0
2018-11-07T01:08:20.677Z,0
2018-11-07T01:09:22.757Z,0
2018-11-07T01:10:25.097Z,0
2018-11-07T01:11:27.122Z,0
2018-11-07T01:12:29.133Z,0
2018-11-07T01:13:31.167Z,0
2018-11-07T01:14:33.537Z,0
2018-11-07T01:15:35.597Z,0
2018-11-07T01:16:37.674Z,0
2018-11-07T01:17:40.022Z,0
2018-11-07T01:18:42.718Z,0
2018-11-07T01:19:44.733Z,0
2018-11-07T01:20:47.062Z,0
2018-11-07T01:21:49.373Z,0
2018-11-07T01:22:51.396Z,0
2018-11-07T01:23:53.424Z,0
2018-11-07T01:24:55.437Z,0
2018-11-07T01:25:57.767Z,0
2018-11-07T01:26:59.796Z,0
2018-11-07T01:28:01.845Z,0
2018-11-07T01:29:04.225Z,0
2018-11-07T01:30:06.234Z,0
2018-11-07T01:31:08.257Z,0
2018-11-07T01:32:10.657Z,0
2018-11-07T01:33:12.676Z,0
2018-11-07T01:34:14.706Z,0
2018-11-07T01:35:16.718Z,0
2018-11-07T01:36:18.734Z,0
2018-11-07T01:37:20.765Z,0
2018-11-07T01:38:22.780Z,0
2018-11-07T01:39:25.383Z,0
2018-11-07T01:40:27.694Z,0
2018-11-07T01:41:30.392Z,0
2018-11-07T01:42:32.419Z,0
2018-11-07T01:43:34.444Z,0
2018-11-07T01:44:36.473Z,0
2018-11-07T01:45:38.481Z,0
2018-11-07T01:46:40.507Z,0
2018-11-07T01:47:42.526Z,0
2018-11-07T01:48:44.825Z,0
2018-11-07T01:49:46.855Z,0
2018-11-07T01:50:48.871Z,0
2018-11-07T01:51:51.183Z,0
2018-11-07T01:52:53.196Z,0
2018-11-07T01:53:55.277Z,0
2018-11-07T01:54:57.581Z,0
2018-11-07T01:55:59.601Z,0
2018-11-07T01:57:01.624Z,0
2018-11-07T01:58:03.638Z,0
2018-11-07T01:59:05.669Z,0
2018-11-07T02:00:07.687Z,0
2018-11-07T02:01:09.985Z,0
2018-11-07T02:02:12.004Z,0
2018-11-07T02:03:14.029Z,0
2018-11-07T02:04:16.050Z,0
2018-11-07T02:05:18.077Z,0
2018-11-07T02:06:20.103Z,0
2018-11-07T02:07:22.110Z,0
2018-11-07T02:08:24.135Z,0
2018-11-07T02:09:26.161Z,0
2018-11-07T02:10:28.173Z,0
2018-11-07T02:11:30.201Z,0
2018-11-07T02:12:32.226Z,0
2018-11-07T02:13:34.243Z,0
2018-11-07T02:14:36.277Z,0
2018-11-07T02:15:38.577Z,0
2018-11-07T02:16:40.596Z,0
2018-11-07T02:17:43.196Z,0
2018-11-07T02:18:45.224Z,0
2018-11-07T02:19:47.239Z,0
2018-11-07T02:20:49.270Z,0
2018-11-07T02:21:51.292Z,0
2018-11-07T02:22:53.297Z,0
2018-11-07T02:23:55.333Z,0
2018-11-07T02:24:57.631Z,0
2018-11-07T02:25:59.660Z,0
2018-11-07T02:27:02.346Z,0
2018-11-07T02:28:05.038Z,0
2018-11-07T02:29:07.443Z,0
2018-11-07T02:30:10.067Z,0
2018-11-07T02:31:12.582Z,0
2018-11-07T02:32:15.270Z,0
2018-11-07T02:33:17.294Z,0
2018-11-07T02:34:19.323Z,0
2018-11-07T02:35:21.645Z,0
2018-11-07T02:36:24.046Z,0
2018-11-07T02:37:26.068Z,0
2018-11-07T02:38:28.793Z,0
2018-11-07T02:39:31.487Z,0
2018-11-07T02:40:33.518Z,0
2018-11-07T02:41:35.935Z,0
2018-11-07T02:42:37.946Z,0
2018-11-07T02:43:39.955Z,0
2018-11-07T02:44:42.368Z,0
2018-11-07T02:45:45.078Z,0
2018-11-07T02:46:47.381Z,0
2018-11-07T02:47:49.411Z,0
2018-11-07T02:48:51.726Z,0
2018-11-07T02:49:53.740Z,0
2018-11-07T02:50:56.428Z,0
2018-11-07T02:51:59.041Z,0
2018-11-07T02:53:01.349Z,0
2018-11-07T02:54:03.760Z,0
2018-11-07T02:55:05.784Z,0
2018-11-07T02:56:08.077Z,0
2018-11-07T02:57:10.108Z,0
2018-11-07T02:58:12.132Z,0
2018-11-07T02:59:14.458Z,0
2018-11-07T03:00:16.772Z,0
2018-11-07T03:01:19.288Z,0
2018-11-07T03:02:21.215Z,0
2018-11-07T03:03:23.229Z,0
2018-11-07T03:04:25.262Z,0
2018-11-07T03:05:28.121Z,0
2018-11-07T03:06:30.147Z,0
2018-11-07T03:07:32.175Z,0
2018-11-07T03:08:34.510Z,0
2018-11-07T03:09:36.534Z,0
2018-11-07T03:10:38.609Z,0
2018-11-07T03:11:41.456Z,0
2018-11-07T03:12:43.474Z,0
2018-11-07T03:13:46.166Z,0
2018-11-07T03:14:48.568Z,0
2018-11-07T03:15:50.583Z,0
2018-11-07T03:16:52.906Z,0
2018-11-07T03:17:54.923Z,0
2018-11-07T03:18:56.945Z,0
2018-11-07T03:19:59.267Z,0
2018-11-07T03:21:01.555Z,0
2018-11-07T03:22:03.875Z,0
2018-11-07T03:23:05.903Z,0
2018-11-07T03:24:07.929Z,0
2018-11-07T03:25:09.942Z,0
2018-11-07T03:26:11.973Z,0
2018-11-07T03:27:14.283Z,0
2018-11-07T03:28:16.964Z,0
2018-11-07T03:29:19.000Z,0
2018-11-07T03:30:21.015Z,0
2018-11-07T03:31:23.619Z,0
2018-11-07T03:32:26.508Z,0
2018-11-07T03:33:28.552Z,0
2018-11-07T03:34:30.568Z,0
2018-11-07T03:35:32.983Z,0
2018-11-07T03:36:35.316Z,0
2018-11-07T03:37:37.324Z,0
2018-11-07T03:38:39.650Z,0
2018-11-07T03:39:41.832Z,0
2018-11-07T03:40:44.128Z,0
2018-11-07T03:41:46.433Z,0
2018-11-07T03:42:48.469Z,0
2018-11-07T03:43:50.489Z,0
2018-11-07T03:44:52.511Z,0
2018-11-07T03:45:54.922Z,0
2018-11-07T03:46:56.951Z,0
2018-11-07T03:47:59.274Z,0
2018-11-07T03:49:01.301Z,0
2018-11-07T03:50:03.597Z,0
2018-11-07T03:51:05.909Z,0
2018-11-07T03:52:07.922Z,0
2018-11-07T03:53:09.968Z,0
2018-11-07T03:54:11.973Z,0
2018-11-07T03:55:14.269Z,0
2018-11-07T03:56:16.293Z,0
2018-11-07T03:57:18.876Z,0
2018-11-07T03:58:20.909Z,0
2018-11-07T03:59:23.208Z,0
2018-11-07T04:00:25.223Z,0
2018-11-07T04:01:27.527Z,0
2018-11-07T04:02:29.557Z,0
2018-11-07T04:03:31.570Z,0
2018-11-07T04:04:34.015Z,0
2018-11-07T04:05:36.290Z,0
2018-11-07T04:06:38.327Z,0
2018-11-07T04:07:40.907Z,0
2018-11-07T04:08:42.925Z,0
2018-11-07T04:09:45.238Z,0
2018-11-07T04:10:47.246Z,0
2018-11-07T04:11:49.279Z,0
2018-11-07T04:12:51.292Z,0
2018-11-07T04:13:53.604Z,0
2018-11-07T04:14:55.619Z,0
2018-11-07T04:15:57.642Z,0
2018-11-07T04:17:00.347Z,0
2018-11-07T04:18:02.667Z,0
2018-11-07T04:19:04.997Z,0
2018-11-07T04:20:07.003Z,0
2018-11-07T04:21:09.699Z,0
2018-11-07T04:22:11.726Z,0
2018-11-07T04:23:13.740Z,0
2018-11-07T04:24:16.145Z,0
2018-11-07T04:25:18.554Z,0
2018-11-07T04:26:20.576Z,0
2018-11-07T04:27:22.601Z,0
2018-11-07T04:28:24.618Z,0
2018-11-07T04:29:27.018Z,0
2018-11-07T04:30:29.312Z,0
2018-11-07T04:31:31.637Z,0
2018-11-07T04:32:33.945Z,0
2018-11-07T04:33:36.531Z,0
2018-11-07T04:34:38.572Z,0
2018-11-07T04:35:40.892Z,0
2018-11-07T04:36:43.193Z,0
2018-11-07T04:37:45.221Z,0
2018-11-07T04:38:47.238Z,0
2018-11-07T04:39:49.269Z,0
2018-11-07T04:40:51.574Z,0
2018-11-07T04:41:53.596Z,0
2018-11-07T04:42:55.940Z,0
2018-11-07T04:43:57.947Z,0
2018-11-07T04:45:00.290Z,0
2018-11-07T04:46:02.599Z,0
2018-11-07T04:47:04.895Z,0
2018-11-07T04:48:07.197Z,0
2018-11-07T04:49:09.228Z,0
2018-11-07T04:50:11.248Z,0
2018-11-07T04:51:13.273Z,0
2018-11-07T04:52:16.006Z,0
2018-11-07T04:53:18.018Z,0
2018-11-07T04:54:20.631Z,0
2018-11-07T04:55:23.041Z,0
2018-11-07T04:56:25.048Z,0
2018-11-07T04:57:27.069Z,0
2018-11-07T04:58:29.093Z,0
2018-11-07T04:59:31.109Z,0
2018-11-07T05:00:33.139Z,0
2018-11-07T05:01:35.153Z,0
2018-11-07T05:02:37.167Z,0
2018-11-07T05:03:39.183Z,0
2018-11-07T05:04:41.217Z,0
2018-11-07T05:05:43.235Z,0
2018-11-07T05:06:45.260Z,0
2018-11-07T05:07:47.291Z,0
2018-11-07T05:08:49.846Z,0
2018-11-07T05:09:51.681Z,0
2018-11-07T05:10:53.698Z,0
2018-11-07T05:11:55.720Z,0
2018-11-07T05:12:58.117Z,0
2018-11-07T05:14:00.141Z,0
2018-11-07T05:15:02.168Z,0
2018-11-07T05:16:04.480Z,0
2018-11-07T05:17:06.790Z,0
2018-11-07T05:18:08.821Z,0
2018-11-07T05:19:10.834Z,0
2018-11-07T05:20:12.847Z,0
2018-11-07T05:21:14.860Z,0
2018-11-07T05:22:16.884Z,0
2018-11-07T05:23:18.902Z,0
2018-11-07T05:24:20.928Z,0
2018-11-07T05:25:23.336Z,0
2018-11-07T05:26:25.718Z,0
2018-11-07T05:27:28.054Z,0
2018-11-07T05:28:30.074Z,0
2018-11-07T05:29:32.086Z,0
2018-11-07T05:30:34.394Z,0
2018-11-07T05:31:36.417Z,0
2018-11-07T05:32:38.819Z,0
2018-11-07T05:33:40.848Z,0
2018-11-07T05:34:42.864Z,0
2018-11-07T05:35:44.876Z,0
2018-11-07T05:36:46.889Z,0
2018-11-07T05:37:48.926Z,0
2018-11-07T05:38:50.936Z,0
2018-11-07T05:39:52.963Z,0
2018-11-07T05:40:55.046Z,0
2018-11-07T05:41:57.003Z,0
2018-11-07T05:42:59.037Z,0
2018-11-07T05:44:01.047Z,0
2018-11-07T05:45:03.073Z,4
2018-11-07T05:46:05.083Z,0
2018-11-07T05:47:07.106Z,0
2018-11-07T05:48:09.130Z,4
2018-11-07T05:49:11.267Z,0
2018-11-07T05:50:13.751Z,4
2018-11-07T05:51:15.757Z,4
2018-11-07T05:52:17.780Z,4
2018-11-07T05:53:19.806Z,4
2018-11-07T05:54:21.831Z,8
2018-11-07T05:55:23.844Z,8
2018-11-07T05:56:25.863Z,12
2018-11-07T05:57:27.875Z,12
2018-11-07T05:58:29.894Z,16
2018-11-07T05:59:31.917Z,16
2018-11-07T06:00:33.930Z,20
2018-11-07T06:01:35.945Z,24
2018-11-07T06:02:37.970Z,24
2018-11-07T06:03:40.369Z,32
2018-11-07T06:04:42.691Z,36
2018-11-07T06:05:44.716Z,44
2018-11-07T06:06:46.725Z,48
2018-11-07T06:07:49.135Z,56
2018-11-07T06:08:51.445Z,68
2018-11-07T06:09:53.854Z,72
2018-11-07T06:10:55.863Z,84
2018-11-07T06:11:58.268Z,92
2018-11-07T06:13:00.281Z,104
2018-11-07T06:14:02.581Z,116
2018-11-07T06:15:04.604Z,128
2018-11-07T06:16:06.689Z,144
2018-11-07T06:17:08.641Z,152
2018-11-07T06:18:11.229Z,176
2018-11-07T06:19:13.265Z,188
2018-11-07T06:20:15.276Z,208
2018-11-07T06:21:17.962Z,228
2018-11-07T06:22:20.372Z,244
2018-11-07T06:23:22.384Z,260
2018-11-07T06:24:24.475Z,280
2018-11-07T06:25:26.432Z,296
2018-11-07T06:26:28.447Z,324
2018-11-07T06:27:30.460Z,356
2018-11-07T06:28:32.483Z,376
2018-11-07T06:29:34.788Z,392
2018-11-07T06:30:36.804Z,424
2018-11-07T06:31:38.813Z,456
2018-11-07T06:32:40.843Z,484
2018-11-07T06:33:43.243Z,504
2018-11-07T06:34:45.537Z,524
2018-11-07T06:35:47.564Z,564
2018-11-07T06:36:50.530Z,608
2018-11-07T06:37:52.832Z,624
2018-11-07T06:38:55.423Z,648
2018-11-07T06:39:57.433Z,668
2018-11-07T06:40:59.457Z,696
2018-11-07T06:42:01.484Z,712
2018-11-07T06:43:03.511Z,736
2018-11-07T06:44:06.090Z,772
2018-11-07T06:45:08.395Z,832
2018-11-07T06:46:10.412Z,820
2018-11-07T06:47:13.020Z,864
2018-11-07T06:48:15.052Z,920
2018-11-07T06:49:17.058Z,932
2018-11-07T06:50:19.083Z,996
2018-11-07T06:51:21.098Z,1040
2018-11-07T06:52:23.129Z,1100
2018-11-07T06:53:25.144Z,1140
2018-11-07T06:54:27.165Z,1172
2018-11-07T06:55:29.467Z,1224
2018-11-07T06:56:31.868Z,1316
2018-11-07T06:57:33.897Z,1320
2018-11-07T06:58:35.912Z,1408
2018-11-07T06:59:37.924Z,1492
2018-11-07T07:00:39.937Z,1580
2018-11-07T07:01:41.966Z,1596
2018-11-07T07:02:43.984Z,1672
2018-11-07T07:03:46.967Z,1744
2018-11-07T07:04:49.275Z,1884
2018-11-07T07:05:51.283Z,1972
2018-11-07T07:06:53.307Z,2072
2018-11-07T07:07:55.322Z,1940
2018-11-07T07:08:57.355Z,2088
2018-11-07T07:09:59.666Z,2148
2018-11-07T07:11:01.687Z,2212
2018-11-07T07:12:04.003Z,2168
2018-11-07T07:13:06.007Z,2252
2018-11-07T07:14:08.318Z,2388
2018-11-07T07:15:10.622Z,2564
2018-11-07T07:16:12.938Z,2480
2018-11-07T07:17:14.947Z,2484
2018-11-07T07:18:17.046Z,2312
2018-11-07T07:19:18.990Z,2348
2018-11-07T07:20:21.410Z,2400
2018-11-07T07:21:23.443Z,2580
2018-11-07T07:22:25.453Z,2712
2018-11-07T07:23:28.144Z,2932
2018-11-07T07:24:30.157Z,3132
2018-11-07T07:25:32.222Z,3120
2018-11-07T07:26:34.579Z,3344
2018-11-07T07:27:36.601Z,3432
2018-11-07T07:28:38.631Z,3400
2018-11-07T07:29:40.680Z,3720
2018-11-07T07:30:42.669Z,3588
2018-11-07T07:31:44.683Z,3680
2018-11-07T07:32:46.977Z,3804
2018-11-07T07:33:49.398Z,3788
2018-11-07T07:34:51.801Z,4176
2018-11-07T07:35:53.823Z,3804
2018-11-07T07:36:55.848Z,4024
2018-11-07T07:37:57.873Z,4364
2018-11-07T07:38:59.884Z,4300
2018-11-07T07:40:02.627Z,4456
2018-11-07T07:41:04.937Z,4516
2018-11-07T07:42:06.951Z,4476
2018-11-07T07:43:08.976Z,5080
2018-11-07T07:44:10.995Z,5032
2018-11-07T07:45:13.021Z,4956
2018-11-07T07:46:15.715Z,5028
2018-11-07T07:47:17.733Z,5308
2018-11-07T07:48:19.761Z,5660
2018-11-07T07:49:21.956Z,4972
2018-11-07T07:50:24.282Z,4608
2018-11-07T07:51:26.595Z,4924
2018-11-07T07:52:28.623Z,4428
2018-11-07T07:53:30.925Z,4704
2018-11-07T07:54:33.339Z,4700
2018-11-07T07:55:35.345Z,4500
2018-11-07T07:56:37.374Z,4864
2018-11-07T07:57:39.671Z,4864
2018-11-07T07:58:42.098Z,5132
2018-11-07T07:59:44.115Z,5108
2018-11-07T08:00:46.135Z,5240
2018-11-07T08:01:48.191Z,5524
2018-11-07T08:02:50.917Z,5512
2018-11-07T08:03:53.254Z,6052
2018-11-07T08:04:55.271Z,5876
2018-11-07T08:05:57.851Z,5880
2018-11-07T08:07:00.241Z,6088
2018-11-07T08:08:02.194Z,5800
2018-11-07T08:09:04.218Z,6460
2018-11-07T08:10:06.911Z,6636
2018-11-07T08:11:08.940Z,5996
2018-11-07T08:12:10.951Z,6112
2018-11-07T08:13:12.975Z,6884
2018-11-07T08:14:14.997Z,6288
2018-11-07T08:15:17.004Z,6872
2018-11-07T08:16:19.028Z,6616
2018-11-07T08:17:21.049Z,6524
2018-11-07T08:18:23.061Z,7252
2018-11-07T08:19:25.400Z,7128
2018-11-07T08:20:27.717Z,6696
2018-11-07T08:21:29.735Z,6892
2018-11-07T08:22:31.745Z,7564
2018-11-07T08:23:33.773Z,7716
2018-11-07T08:24:35.784Z,7796
2018-11-07T08:25:37.810Z,7876
2018-11-07T08:26:39.835Z,7728
2018-11-07T08:27:42.122Z,6692
2018-11-07T08:28:44.443Z,7668
2018-11-07T08:29:46.457Z,8756
2018-11-07T08:30:48.521Z,7752
2018-11-07T08:31:50.828Z,7740
2018-11-07T08:32:53.146Z,7312
2018-11-07T08:33:55.557Z,9368
2018-11-07T08:34:58.258Z,8820
2018-11-07T08:36:00.676Z,9180
2018-11-07T08:37:02.977Z,7508
2018-11-07T08:38:05.484Z,8000
2018-11-07T08:39:07.517Z,9004
2018-11-07T08:40:09.829Z,10688
2018-11-07T08:41:12.126Z,8928
2018-11-07T08:42:14.183Z,7540
2018-11-07T08:43:16.587Z,8104
2018-11-07T08:44:18.602Z,8532
2018-11-07T08:45:20.639Z,8392
2018-11-07T08:46:22.656Z,9648
2018-11-07T08:47:24.675Z,7060
2018-11-07T08:48:26.708Z,8840
2018-11-07T08:49:29.012Z,7260
2018-11-07T08:50:31.049Z,11196
2018-11-07T08:51:33.463Z,7244
2018-11-07T08:52:35.504Z,7888
2018-11-07T08:53:37.819Z,8988
2018-11-07T08:54:39.849Z,8612
2018-11-07T08:55:42.179Z,10984
2018-11-07T08:56:44.494Z,7688
2018-11-07T08:57:46.526Z,7508
2018-11-07T08:58:48.541Z,8344
2018-11-07T08:59:50.559Z,8244
2018-11-07T09:00:52.878Z,7496
2018-11-07T09:01:54.935Z,7764
2018-11-07T09:02:57.261Z,9476
2018-11-07T09:03:59.683Z,10392
2018-11-07T09:05:01.693Z,8116
2018-11-07T09:06:04.072Z,8044
2018-11-07T09:07:06.455Z,11528
2018-11-07T09:08:08.471Z,16264
2018-11-07T09:09:10.506Z,12888
2018-11-07T09:10:12.519Z,10384
2018-11-07T09:11:14.549Z,7588
2018-11-07T09:12:16.952Z,10000
2018-11-07T09:13:18.896Z,12764
2018-11-07T09:14:20.912Z,12972
2018-11-07T09:15:23.624Z,12012
2018-11-07T09:16:25.639Z,13508
2018-11-07T09:17:27.651Z,13972
2018-11-07T09:18:29.698Z,18176
2018-11-07T09:19:31.733Z,16960
2018-11-07T09:20:33.749Z,11360
2018-11-07T09:21:35.782Z,10008
2018-11-07T09:22:38.183Z,11732
2018-11-07T09:23:40.206Z,12860
2018-11-07T09:24:42.518Z,22528
2018-11-07T09:25:44.534Z,16596
2018-11-07T09:26:46.564Z,11488
2018-11-07T09:27:48.590Z,10328
2018-11-07T09:28:50.615Z,13596
2018-11-07T09:29:52.626Z,19968
2018-11-07T09:30:55.039Z,20416
2018-11-07T09:31:57.056Z,19616
2018-11-07T09:32:59.073Z,15480
2018-11-07T09:34:01.104Z,15568
2018-11-07T09:35:03.705Z,20384
2018-11-07T09:36:06.035Z,18432
2018-11-07T09:37:08.052Z,14228
2018-11-07T09:38:10.109Z,11656
2018-11-07T09:39:12.102Z,12948
2018-11-07T09:40:14.124Z,12016
2018-11-07T09:41:16.145Z,11640
2018-11-07T09:42:18.181Z,12472
2018-11-07T09:43:20.483Z,11372
2018-11-07T09:44:22.899Z,15276
2018-11-07T09:45:24.926Z,14496
2018-11-07T09:46:26.952Z,15092
2018-11-07T09:47:29.036Z,22208
2018-11-07T09:48:31.349Z,21312
2018-11-07T09:49:33.368Z,23520
2018-11-07T09:50:35.382Z,37568
2018-11-07T09:51:37.804Z,33376
2018-11-07T09:52:39.819Z,27904
2018-11-07T09:53:42.260Z,31264
2018-11-07T09:54:44.260Z,20960
2018-11-07T09:55:46.570Z,23936
2018-11-07T09:56:48.593Z,26784
2018-11-07T09:57:50.925Z,22944
2018-11-07T09:58:52.941Z,24992
2018-11-07T09:59:55.257Z,19936
2018-11-07T10:00:57.284Z,17884
2018-11-07T10:01:59.316Z,21728
2018-11-07T10:03:01.330Z,28896
2018-11-07T10:04:03.751Z,22272
2018-11-07T10:05:05.771Z,22144
2018-11-07T10:06:07.792Z,31488
2018-11-07T10:07:09.822Z,34496
2018-11-07T10:08:11.839Z,32768
2018-11-07T10:09:13.871Z,19424
2018-11-07T10:10:15.889Z,27136
2018-11-07T10:11:17.927Z,21760
2018-11-07T10:12:19.955Z,26560
2018-11-07T10:13:21.973Z,28864
2018-11-07T10:14:24.669Z,42880
2018-11-07T10:15:26.688Z,44960
2018-11-07T10:16:28.723Z,55424
2018-11-07T10:17:30.751Z,43072
2018-11-07T10:18:33.462Z,56640
2018-11-07T10:19:35.491Z,26112
2018-11-07T10:20:38.049Z,49024
2018-11-07T10:21:40.307Z,58976
2018-11-07T10:22:42.329Z,59968
2018-11-07T10:23:44.353Z,54688
2018-11-07T10:24:46.774Z,48352
2018-11-07T10:25:48.795Z,51072
2018-11-07T10:26:50.960Z,33920
2018-11-07T10:27:53.279Z,45088
2018-11-07T10:28:55.278Z,56416
2018-11-07T10:29:58.020Z,46432
2018-11-07T10:30:59.669Z,58752
2018-11-07T10:32:01.689Z,58272
2018-11-07T10:33:04.711Z,59968
2018-11-07T10:34:06.746Z,56928
2018-11-07T10:35:08.789Z,53856
2018-11-07T10:36:10.800Z,51232
2018-11-07T10:37:12.853Z,44800
2018-11-07T10:38:14.944Z,52320
2018-11-07T10:39:17.580Z,55712
2018-11-07T10:40:19.621Z,56352
2018-11-07T10:41:22.031Z,54432
2018-11-07T10:42:24.070Z,52320
2018-11-07T10:43:26.099Z,55296
2018-11-07T10:44:28.200Z,53280
2018-11-07T10:45:30.172Z,24992
2018-11-07T10:46:32.200Z,30336
2018-11-07T10:47:34.516Z,37536
2018-11-07T10:48:37.205Z,40064
2018-11-07T10:49:39.635Z,36512
2018-11-07T10:50:41.660Z,45248
2018-11-07T10:51:43.719Z,49248
2018-11-07T10:52:46.072Z,56704
2018-11-07T10:53:48.104Z,50368
2018-11-07T10:54:50.136Z,46816
2018-11-07T10:55:52.470Z,55168
2018-11-07T10:56:54.508Z,56672
2018-11-07T10:57:56.537Z,49920
2018-11-07T10:58:58.572Z,28160
2018-11-07T11:00:00.614Z,20288
2018-11-07T11:01:02.633Z,30976
2018-11-07T11:02:04.668Z,40864
2018-11-07T11:03:06.702Z,20608
2018-11-07T11:04:08.733Z,15228
2018-11-07T11:05:10.813Z,19712
2018-11-07T11:06:12.812Z,20224
2018-11-07T11:07:14.847Z,19360
2018-11-07T11:08:16.870Z,19136
2018-11-07T11:09:19.197Z,22560
2018-11-07T11:10:21.612Z,19744
2018-11-07T11:11:23.793Z,21696
2018-11-07T11:12:25.699Z,16724
2018-11-07T11:13:27.717Z,16420
2018-11-07T11:14:29.763Z,21568
2018-11-07T11:15:32.077Z,18752
2018-11-07T11:16:34.117Z,32672
2018-11-07T11:17:36.424Z,27392
2018-11-07T11:18:38.459Z,33792
2018-11-07T11:19:40.493Z,39840
2018-11-07T11:20:42.519Z,20512
2018-11-07T11:21:44.566Z,27936
2018-11-07T11:22:46.587Z,19328
2018-11-07T11:23:48.623Z,17684
2018-11-07T11:24:50.978Z,19168
2018-11-07T11:25:53.380Z,18304
2018-11-07T11:26:55.673Z,24800
2018-11-07T11:27:57.984Z,32064
2018-11-07T11:29:00.009Z,18112
2018-11-07T11:30:02.624Z,16196
2018-11-07T11:31:05.338Z,14000
2018-11-07T11:32:07.365Z,13200
2018-11-07T11:33:09.691Z,9400
2018-11-07T11:34:11.945Z,12688
2018-11-07T11:35:14.460Z,11096
2018-11-07T11:36:16.409Z,11376
2018-11-07T11:37:18.716Z,17068
2018-11-07T11:38:20.758Z,14604
2018-11-07T11:39:23.167Z,8924
2018-11-07T11:40:25.200Z,8616
2018-11-07T11:41:27.215Z,10476
2018-11-07T11:42:29.254Z,11028
2018-11-07T11:43:31.279Z,14328
2018-11-07T11:44:33.314Z,21536
2018-11-07T11:45:35.351Z,25600
2018-11-07T11:46:37.374Z,32736
2018-11-07T11:47:39.412Z,41376
2018-11-07T11:48:41.820Z,55392
2018-11-07T11:49:44.241Z,42784
2018-11-07T11:50:46.550Z,30368
2018-11-07T11:51:48.584Z,18752
2018-11-07T11:52:50.609Z,22432
2018-11-07T11:53:52.633Z,29088
2018-11-07T11:54:54.672Z,37696
2018-11-07T11:55:56.691Z,27744
2018-11-07T11:56:58.727Z,17952
2018-11-07T11:58:01.049Z,20384
2018-11-07T11:59:03.158Z,27616
2018-11-07T12:00:05.983Z,17252
2018-11-07T12:01:09.705Z,17180
2018-11-07T12:02:11.745Z,25088
2018-11-07T12:03:13.757Z,21056
2018-11-07T12:04:16.083Z,25472
2018-11-07T12:05:18.408Z,16832
2018-11-07T12:06:20.785Z,14484
2018-11-07T12:07:22.802Z,20096
2018-11-07T12:08:25.232Z,25216
2018-11-07T12:09:27.242Z,16880
2018-11-07T12:10:29.637Z,21344
2018-11-07T12:11:31.674Z,34752
2018-11-07T12:12:33.701Z,26560
2018-11-07T12:13:35.723Z,20800
2018-11-07T12:14:37.748Z,20416
2018-11-07T12:15:39.794Z,18656
2018-11-07T12:16:43.034Z,23072
2018-11-07T12:17:45.483Z,23232
2018-11-07T12:18:47.387Z,26592
2018-11-07T12:19:49.403Z,16988
2018-11-07T12:20:51.447Z,17668
2018-11-07T12:21:53.471Z,17396
2018-11-07T12:22:55.508Z,26464
2018-11-07T12:23:57.805Z,31488
2018-11-07T12:25:00.127Z,40480
2018-11-07T12:26:02.152Z,40672
2018-11-07T12:27:04.177Z,41312
2018-11-07T12:28:06.219Z,35200
2018-11-07T12:29:08.238Z,35392
2018-11-07T12:30:10.275Z,37728
2018-11-07T12:31:12.695Z,39456
2018-11-07T12:32:15.069Z,32864
2018-11-07T12:33:17.092Z,33472
2018-11-07T12:34:19.132Z,36480
2018-11-07T12:35:21.435Z,40224
2018-11-07T12:36:24.086Z,43872
2018-11-07T12:37:26.090Z,43040
2018-11-07T12:38:28.119Z,38752
2018-11-07T12:39:30.137Z,39360
2018-11-07T12:40:32.176Z,42688
2018-11-07T12:41:34.205Z,33536
2018-11-07T12:42:36.242Z,32960
2018-11-07T12:43:38.264Z,28704
2018-11-07T12:44:40.282Z,27520
2018-11-07T12:45:42.605Z,29312
2018-11-07T12:46:44.921Z,29056
2018-11-07T12:47:46.960Z,34560
2018-11-07T12:48:48.992Z,34176
2018-11-07T12:49:51.121Z,34656
2018-11-07T12:50:53.049Z,37440
2018-11-07T12:51:55.085Z,34976
2018-11-07T12:52:57.386Z,23968
2018-11-07T12:53:59.429Z,21056
2018-11-07T12:55:01.452Z,20640
2018-11-07T12:56:03.773Z,16772
2018-11-07T12:57:05.883Z,16152
2018-11-07T12:58:08.508Z,15296
2018-11-07T12:59:11.452Z,16560
2018-11-07T13:00:13.757Z,21920
2018-11-07T13:01:15.797Z,15696
2018-11-07T13:02:18.112Z,14016
2018-11-07T13:03:20.544Z,14156
2018-11-07T13:04:22.898Z,14144
2018-11-07T13:05:24.892Z,13868
2018-11-07T13:06:27.212Z,14056
2018-11-07T13:07:29.236Z,13872
2018-11-07T13:08:31.259Z,13588
2018-11-07T13:09:33.286Z,14000
2018-11-07T13:10:35.322Z,18080
2018-11-07T13:11:37.635Z,18336
2018-11-07T13:12:39.662Z,14660
2018-11-07T13:13:41.721Z,18112
2018-11-07T13:14:43.762Z,17376
2018-11-07T13:15:45.808Z,15720
2018-11-07T13:16:47.861Z,16900
2018-11-07T13:17:49.899Z,14564
2018-11-07T13:18:51.934Z,15012
2018-11-07T13:19:54.249Z,16916
2018-11-07T13:20:56.282Z,15136
2018-11-07T13:21:58.302Z,14912
2018-11-07T13:23:00.337Z,16512
2018-11-07T13:24:02.659Z,20416
2018-11-07T13:25:05.363Z,14192
2018-11-07T13:26:07.401Z,12696
2018-11-07T13:27:09.715Z,10300
2018-11-07T13:28:12.206Z,8588
2018-11-07T13:29:14.648Z,7984
2018-11-07T13:30:16.706Z,8000
2018-11-07T13:31:18.714Z,7680
2018-11-07T13:32:21.070Z,7196
2018-11-07T13:33:23.392Z,6816
2018-11-07T13:34:25.442Z,6628
2018-11-07T13:35:27.454Z,6532
2018-11-07T13:36:29.485Z,6420
2018-11-07T13:37:32.005Z,6472
2018-11-07T13:38:34.746Z,6496
2018-11-07T13:39:38.196Z,6564
2018-11-07T13:40:40.225Z,6476
2018-11-07T13:41:42.571Z,6444
2018-11-07T13:42:44.915Z,6352
2018-11-07T13:43:46.933Z,6360
2018-11-07T13:44:48.967Z,6284
2018-11-07T13:45:51.349Z,6296
2018-11-07T13:46:53.304Z,6312
2018-11-07T13:47:55.908Z,6404
2018-11-07T13:48:57.934Z,6292
2018-11-07T13:49:59.961Z,6360
2018-11-07T13:51:02.600Z,6356
2018-11-07T13:52:04.904Z,6288
2018-11-07T13:53:07.029Z,6232
2018-11-07T13:54:08.955Z,6208
2018-11-07T13:55:11.384Z,6172
2018-11-07T13:56:14.082Z,6152
2018-11-07T13:57:16.106Z,6164
2018-11-07T13:58:18.132Z,6284
2018-11-07T13:59:20.785Z,6384
2018-11-07T14:00:22.758Z,6428
2018-11-07T14:01:25.068Z,6452
2018-11-07T14:02:27.099Z,6540
2018-11-07T14:03:29.188Z,6604
2018-11-07T14:04:31.464Z,6632
2018-11-07T14:05:33.745Z,6504
2018-11-07T14:06:35.565Z,6532
2018-11-07T14:07:37.597Z,6424
2018-11-07T14:08:39.652Z,6252
2018-11-07T14:09:41.700Z,6224
2018-11-07T14:10:43.723Z,6200
2018-11-07T14:11:45.747Z,6204
2018-11-07T14:12:47.781Z,6316
2018-11-07T14:13:50.091Z,6336
2018-11-07T14:14:52.130Z,6340
2018-11-07T14:15:54.516Z,6288
2018-11-07T14:16:56.904Z,6220